createdAt,value
2022-08-17T00:00:40.303Z,97554.31
2022-08-17T00:03:17.617Z,97554.28
2022-08-17T00:05:51.679Z,97541.22
2022-08-17T00:08:24.230Z,97544.16
2022-08-17T00:10:55.519Z,97535.09
2022-08-17T00:13:28.577Z,97531.94
2022-08-17T00:16:00.646Z,97539.66
2022-08-17T00:19:06.139Z,97536.19
2022-08-17T00:21:25.350Z,97532.44
2022-08-17T00:23:55.869Z,97537.47
2022-08-17T00:26:44.598Z,97531.06
2022-08-17T00:29:19.629Z,97529.47
2022-08-17T00:31:49.478Z,97528.69
2022-08-17T00:34:18.125Z,97535.06
2022-08-17T00:36:46.679Z,97526.03
2022-08-17T00:39:15.490Z,97527.09
2022-08-17T00:41:45.542Z,97526.28
2022-08-17T00:44:14.670Z,97522.31
2022-08-17T00:46:47.879Z,97523.09
2022-08-17T00:49:19.385Z,97522.31
2022-08-17T00:51:55.079Z,97514.59
2022-08-17T00:54:33.830Z,97511.72
2022-08-17T00:57:19.673Z,97519.13
2022-08-17T01:00:03.264Z,97526.03
2022-08-17T01:02:50.881Z,97525.19
2022-08-17T01:05:25.420Z,97524.94
2022-08-17T01:07:56.066Z,97522.25
2022-08-17T01:10:57.123Z,97523.28
2022-08-17T01:13:28.421Z,97517.97
2022-08-17T01:16:02.448Z,97517.97
2022-08-17T01:18:32.074Z,97516.69
2022-08-17T01:21:08.273Z,97521.47
2022-08-17T01:23:42.412Z,97528.88
2022-08-17T01:26:10.995Z,97526.50
2022-08-17T01:28:54.289Z,97515.84
2022-08-17T01:31:26.799Z,97508.94
2022-08-17T01:34:00.080Z,97520.06
2022-08-17T01:36:30.931Z,97515.03
2022-08-17T01:39:02.263Z,97521.63
2022-08-17T01:41:31.516Z,97520.53
2022-08-17T01:44:06.744Z,97521.91
2022-08-17T01:46:38.629Z,97521.91
2022-08-17T01:49:09.731Z,97511.78
2022-08-17T01:51:38.766Z,97512.06
2022-08-17T01:54:14.691Z,97508.31
2022-08-17T01:56:49.483Z,97516.81
2022-08-17T01:59:19.449Z,97520.22
2022-08-17T02:01:48.809Z,97520.72
2022-08-17T02:04:18.130Z,97519.06
2022-08-17T02:06:53.554Z,97524.66
2022-08-17T02:09:26.626Z,97518.84
2022-08-17T02:12:37.264Z,97517.78
2022-08-17T02:14:52.552Z,97529.47
2022-08-17T02:17:21.612Z,97530.53
2022-08-17T02:19:50.597Z,97533.13
2022-08-17T02:22:20.961Z,97531.00
2022-08-17T02:25:01.115Z,97528.34
2022-08-17T02:27:31.359Z,97528.88
2022-08-17T02:29:59.956Z,97525.63
2022-08-17T02:32:29.438Z,97517.94
2022-08-17T02:34:59.559Z,97522.44
2022-08-17T02:37:29.808Z,97518.19
2022-08-17T02:40:00.839Z,97519.25
2022-08-17T02:42:34.483Z,97516.56
2022-08-17T02:45:05.308Z,97519.97
2022-08-17T02:47:34.986Z,97519.75
2022-08-17T02:50:03.514Z,97519.25
2022-08-17T02:52:43.493Z,97513.44
2022-08-17T02:55:18.477Z,97514.72
2022-08-17T02:57:48.023Z,97522.44
2022-08-17T03:00:21.244Z,97521.63
2022-08-17T03:02:50.723Z,97524.03
2022-08-17T03:05:23.428Z,97522.19
2022-08-17T03:07:53.473Z,97523.47
2022-08-17T03:10:25.622Z,97520.84
2022-08-17T03:12:56.295Z,97517.66
2022-08-17T03:15:28.344Z,97518.47
2022-08-17T03:17:58.467Z,97521.63
2022-08-17T03:20:30.125Z,97523.97
2022-08-17T03:23:01.869Z,97535.94
2022-08-17T03:25:41.788Z,97533.28
2022-08-17T03:28:15.179Z,97544.63
2022-08-17T03:30:43.863Z,97585.97
2022-08-17T03:33:14.199Z,97566.88
2022-08-17T03:35:43.720Z,97589.03
2022-08-17T03:38:15.211Z,97564.16
2022-08-17T03:40:58.877Z,97560.94
2022-08-17T03:43:32.359Z,97559.94
2022-08-17T03:46:28.636Z,97547.22
2022-08-17T03:49:22.398Z,97547.50
2022-08-17T03:52:08.600Z,97558.91
2022-08-17T03:54:54.801Z,97550.22
2022-08-17T03:57:26.344Z,97552.06
2022-08-17T03:59:56.441Z,97562.69
2022-08-17T04:02:29.653Z,97555.28
2022-08-17T04:04:59.671Z,97538.88
2022-08-17T04:07:31.806Z,97547.34
2022-08-17T04:10:00.503Z,97543.66
2022-08-17T04:12:44.980Z,97535.69
2022-08-17T04:15:14.444Z,97524.84
2022-08-17T04:17:45.296Z,97523.56
2022-08-17T04:20:16.544Z,97511.59
2022-08-17T04:22:58.973Z,97518.75
2022-08-17T04:25:29.803Z,97511.34
2022-08-17T04:28:00.646Z,97512.94
2022-08-17T04:30:34.401Z,97502.34
2022-08-17T04:33:08.712Z,97502.59
2022-08-17T04:35:41.663Z,97500.75
2022-08-17T04:38:16.802Z,97491.47
2022-08-17T04:41:03.646Z,97487.25
2022-08-17T04:43:36.118Z,97496.00
2022-08-17T04:46:08.646Z,97490.69
2022-08-17T04:48:40.836Z,97489.09
2022-08-17T04:51:15.699Z,97497.84
2022-08-17T04:53:53.902Z,97493.88
2022-08-17T04:56:26.367Z,97499.19
2022-08-17T04:59:00.863Z,97509.53
2022-08-17T05:01:33.842Z,97504.25
2022-08-17T05:04:33.455Z,97497.63
2022-08-17T05:06:56.071Z,97500.00
2022-08-17T05:09:24.892Z,97507.72
2022-08-17T05:11:55.299Z,97501.06
2022-08-17T05:14:32.705Z,97502.69
2022-08-17T05:17:07.027Z,97495.00
2022-08-17T05:19:36.608Z,97498.22
2022-08-17T05:22:06.709Z,97484.69
2022-08-17T05:24:42.543Z,97483.41
2022-08-17T05:27:19.957Z,97482.88
2022-08-17T05:29:50.196Z,97483.94
2022-08-17T05:32:38.770Z,97487.13
2022-08-17T05:35:11.262Z,97488.22
2022-08-17T05:37:39.791Z,97480.00
2022-08-17T05:40:10.643Z,97480.25
2022-08-17T05:42:39.309Z,97482.13
2022-08-17T05:45:11.214Z,97487.19
2022-08-17T05:47:41.284Z,97490.38
2022-08-17T05:50:18.050Z,97478.72
2022-08-17T05:53:00.609Z,97477.13
2022-08-17T05:55:44.388Z,97472.34
2022-08-17T05:58:29.656Z,97481.41
2022-08-17T06:01:08.991Z,97479.03
2022-08-17T06:03:50.913Z,97476.13
2022-08-17T06:06:39.827Z,97463.34
2022-08-17T06:09:35.974Z,97467.34
2022-08-17T06:12:35.212Z,97473.97
2022-08-17T06:15:29.904Z,97493.13
2022-08-17T06:18:05.514Z,97499.75
2022-08-17T06:20:48.112Z,97499.25
2022-08-17T06:23:25.922Z,97500.06
2022-08-17T06:26:04.127Z,97506.97
2022-08-17T06:28:42.527Z,97510.97
2022-08-17T06:31:21.444Z,97509.13
2022-08-17T06:33:52.293Z,97496.13
2022-08-17T06:36:48.238Z,97507.53
2022-08-17T06:39:37.844Z,97507.00
2022-08-17T06:43:04.089Z,97505.44
2022-08-17T06:45:17.999Z,97516.84
2022-08-17T06:47:54.671Z,97516.06
2022-08-17T06:50:38.154Z,97520.31
2022-08-17T06:53:19.736Z,97525.66
2022-08-17T06:55:59.906Z,97525.91
2022-08-17T06:58:31.954Z,97530.69
2022-08-17T07:01:10.779Z,97521.66
2022-08-17T07:03:49.889Z,97526.44
2022-08-17T07:06:26.560Z,97525.66
2022-08-17T07:09:02.321Z,97523.78
2022-08-17T07:11:40.026Z,97525.66
2022-08-17T07:14:28.544Z,97529.38
2022-08-17T07:17:02.832Z,97523.53
2022-08-17T07:19:36.202Z,97537.91
2022-08-17T07:22:21.852Z,97523.81
2022-08-17T07:24:58.468Z,97516.91
2022-08-17T07:27:31.634Z,97519.81
2022-08-17T07:30:10.665Z,97509.19
2022-08-17T07:32:49.427Z,97514.22
2022-08-17T07:35:40.692Z,97513.44
2022-08-17T07:38:24.707Z,97514.47
2022-08-17T07:41:04.867Z,97519.78
2022-08-17T07:43:36.969Z,97522.44
2022-08-17T07:46:35.395Z,97522.44
2022-08-17T07:49:26.264Z,97522.94
2022-08-17T07:52:24.314Z,97522.66
2022-08-17T07:54:51.038Z,97523.44
2022-08-17T07:57:36.199Z,97512.78
2022-08-17T08:00:26.659Z,97520.47
2022-08-17T08:03:13.378Z,97530.31
2022-08-17T08:05:55.976Z,97528.19
2022-08-17T08:08:33.890Z,97536.69
2022-08-17T08:11:10.247Z,97536.63
2022-08-17T08:13:42.805Z,97533.69
2022-08-17T08:16:27.306Z,97537.13
2022-08-17T08:18:59.421Z,97537.38
2022-08-17T08:21:47.505Z,97534.69
2022-08-17T08:24:47.525Z,97540.78
2022-08-17T08:27:35.036Z,97533.84
2022-08-17T08:30:11.335Z,97538.09
2022-08-17T08:33:17.225Z,97545.53
2022-08-17T08:35:56.818Z,97550.03
2022-08-17T08:38:40.375Z,97561.50
2022-08-17T08:41:43.448Z,97564.91
2022-08-17T08:45:01.053Z,97571.28
2022-08-17T08:47:46.993Z,97564.06
2022-08-17T08:50:38.251Z,97573.38
2022-08-17T08:53:27.425Z,97571.75
2022-08-17T08:56:03.783Z,97588.00
2022-08-17T08:58:50.742Z,97584.53
2022-08-17T09:01:32.817Z,97587.69
2022-08-17T09:04:27.240Z,97579.13
2022-08-17T09:07:12.834Z,97574.75
2022-08-17T09:10:00.705Z,97564.25
2022-08-17T09:12:42.769Z,97572.72
2022-08-17T09:15:21.066Z,97570.47
2022-08-17T09:19:01.562Z,97576.84
2022-08-17T09:20:58.296Z,97567.19
2022-08-17T09:23:35.496Z,97562.53
2022-08-17T09:26:13.090Z,97552.56
2022-08-17T09:28:51.667Z,97559.91
2022-08-17T09:31:33.215Z,97559.31
2022-08-17T09:34:10.188Z,97565.69
2022-08-17T09:36:49.022Z,97563.28
2022-08-17T09:39:30.325Z,97575.06
2022-08-17T09:42:08.047Z,97573.63
2022-08-17T09:44:42.425Z,97579.41
2022-08-17T09:47:22.995Z,97579.09
2022-08-17T09:50:00.468Z,97575.00
2022-08-17T09:52:31.700Z,97567.50
2022-08-17T09:55:02.438Z,97554.88
2022-08-17T09:57:50.925Z,97561.72
2022-08-17T10:00:28.014Z,97560.59
2022-08-17T10:03:28.315Z,97554.97
2022-08-17T10:06:14.081Z,97557.56
2022-08-17T10:08:54.518Z,97558.66
2022-08-17T10:11:48.398Z,97557.22
2022-08-17T10:14:37.437Z,97554.22
2022-08-17T10:17:22.657Z,97535.25
2022-08-17T10:20:03.131Z,97515.66
2022-08-17T10:22:59.560Z,97521.78
2022-08-17T10:25:55.174Z,97514.97
2022-08-17T10:28:31.126Z,97517.66
2022-08-17T10:31:33.864Z,97528.34
2022-08-17T10:34:19.028Z,97535.72
2022-08-17T10:37:01.438Z,97545.56
2022-08-17T10:39:52.139Z,97560.28
2022-08-17T10:42:33.101Z,97567.22
2022-08-17T10:45:16.717Z,97568.84
2022-08-17T10:48:05.658Z,97568.78
2022-08-17T10:51:08.917Z,97574.06
2022-08-17T10:54:01.481Z,97584.19
2022-08-17T10:56:51.525Z,97575.09
2022-08-17T10:59:55.055Z,97570.16
2022-08-17T11:02:31.564Z,97560.97
2022-08-17T11:05:29.334Z,97566.44
2022-08-17T11:08:46.397Z,97568.38
2022-08-17T11:11:52.776Z,97565.72
2022-08-17T11:14:49.760Z,97565.59
2022-08-17T11:17:45.804Z,97559.25
2022-08-17T11:20:58.116Z,97559.06
2022-08-17T11:24:07.477Z,97559.97
2022-08-17T11:26:46.226Z,97564.94
2022-08-17T11:29:27.495Z,97583.09
2022-08-17T11:32:07.618Z,97572.25
2022-08-17T11:34:43.782Z,97569.09
2022-08-17T11:37:42.850Z,97575.47
2022-08-17T11:41:00.392Z,97572.78
2022-08-17T11:44:30.663Z,97577.53
2022-08-17T11:47:33.808Z,97580.09
2022-08-17T11:50:56.785Z,97582.69
2022-08-17T11:54:32.300Z,97585.06
2022-08-17T11:57:22.804Z,97579.22
2022-08-17T12:00:07.524Z,97585.78
2022-08-17T12:02:48.254Z,97580.31
2022-08-17T12:05:34.530Z,97586.09
2022-08-17T12:08:18.580Z,97584.50
2022-08-17T12:11:05.868Z,97573.38
2022-08-17T12:13:47.994Z,97571.09
2022-08-17T12:16:22.001Z,97570.97
2022-08-17T12:18:58.614Z,97577.56
2022-08-17T12:21:48.681Z,97574.97
2022-08-17T12:24:33.418Z,97577.97
2022-08-17T12:27:06.464Z,97574.97
2022-08-17T12:29:38.820Z,97575.06
2022-08-17T12:32:20.248Z,97570.19
2022-08-17T12:34:51.886Z,97567.03
2022-08-17T12:37:24.605Z,97559.19
2022-08-17T12:39:58.479Z,97571.38
2022-08-17T12:42:31.647Z,97578.84
2022-08-17T12:45:00.428Z,97567.22
2022-08-17T12:47:31.903Z,97565.63
2022-08-17T12:50:28.315Z,97562.84
2022-08-17T12:53:02.266Z,97563.03
2022-08-17T12:55:38.969Z,97560.63
2022-08-17T12:58:14.763Z,97559.13
2022-08-17T13:00:51.845Z,97545.72
2022-08-17T13:03:26.479Z,97548.50
2022-08-17T13:06:01.610Z,97552.66
2022-08-17T13:08:36.704Z,97543.84
2022-08-17T13:11:09.383Z,97531.34
2022-08-17T13:13:41.732Z,97528.53
2022-08-17T13:16:22.205Z,97539.03
2022-08-17T13:19:05.393Z,97543.19
2022-08-17T13:21:35.625Z,97542.75
2022-08-17T13:24:17.173Z,97530.63
2022-08-17T13:26:50.827Z,97531.28
2022-08-17T13:29:26.602Z,97538.41
2022-08-17T13:32:14.279Z,97530.06
2022-08-17T13:35:12.454Z,97517.91
2022-08-17T13:37:38.020Z,97533.28
2022-08-17T13:40:36.830Z,97525.25
2022-08-17T13:43:06.214Z,97521.38
2022-08-17T13:45:50.593Z,97517.81
2022-08-17T13:48:28.970Z,97522.44
2022-08-17T13:51:18.198Z,97519.34
2022-08-17T13:53:59.308Z,97519.53
2022-08-17T13:57:03.946Z,97516.09
2022-08-17T13:59:55.861Z,97513.91
2022-08-17T14:02:28.271Z,97517.22
2022-08-17T14:05:00.578Z,97512.63
2022-08-17T14:07:35.942Z,97512.34
2022-08-17T14:10:12.818Z,97508.22
2022-08-17T14:12:44.107Z,97510.00
2022-08-17T14:15:17.078Z,97500.66
2022-08-17T14:17:46.190Z,97504.31
2022-08-17T14:20:15.901Z,97500.97
2022-08-17T14:22:51.249Z,97499.06
2022-08-17T14:25:25.160Z,97494.59
2022-08-17T14:27:56.392Z,97481.31
2022-08-17T14:30:31.899Z,97490.50
2022-08-17T14:33:02.194Z,97492.25
2022-08-17T14:35:31.242Z,97496.53
2022-08-17T14:38:02.165Z,97491.75
2022-08-17T14:40:31.384Z,97497.16
2022-08-17T14:43:01.251Z,97484.94
2022-08-17T14:45:33.288Z,97492.81
2022-08-17T14:48:07.732Z,97492.34
2022-08-17T14:50:37.526Z,97493.94
2022-08-17T14:53:15.239Z,97489.34
2022-08-17T14:55:47.011Z,97493.13
2022-08-17T14:58:18.042Z,97482.31
2022-08-17T15:00:46.731Z,97478.94
2022-08-17T15:03:15.498Z,97469.06
2022-08-17T15:05:45.530Z,97468.53
2022-08-17T15:08:16.692Z,97472.91
2022-08-17T15:10:45.873Z,97474.72
2022-08-17T15:13:21.571Z,97478.19
2022-08-17T15:15:51.203Z,97471.59
2022-08-17T15:18:20.356Z,97475.50
2022-08-17T15:20:50.531Z,97485.47
2022-08-17T15:23:24.163Z,97474.81
2022-08-17T15:25:55.562Z,97491.91
2022-08-17T15:28:24.439Z,97496.84
2022-08-17T15:30:54.396Z,97492.97
2022-08-17T15:33:29.607Z,97492.41
2022-08-17T15:36:01.183Z,97495.19
2022-08-17T15:38:39.195Z,97487.88
2022-08-17T15:41:15.024Z,97488.19
2022-08-17T15:43:46.719Z,97492.69
2022-08-17T15:46:18.882Z,97488.59
2022-08-17T15:48:52.330Z,97488.34
2022-08-17T15:51:25.171Z,97486.75
2022-08-17T15:53:58.059Z,97485.66
2022-08-17T15:56:27.862Z,97485.84
2022-08-17T15:58:57.613Z,97476.84
2022-08-17T16:03:11.143Z,97474.00
2022-08-17T16:04:29.937Z,97458.91
2022-08-17T16:06:59.999Z,97461.50
2022-08-17T16:09:30.119Z,97471.72
2022-08-17T16:11:58.684Z,97466.19
2022-08-17T16:14:34.986Z,97464.94
2022-08-17T16:17:04.524Z,97472.91
2022-08-17T16:19:34.999Z,97478.59
2022-08-17T16:22:05.230Z,97484.19
2022-08-17T16:24:37.269Z,97491.81
2022-08-17T16:27:12.666Z,97498.66
2022-08-17T16:29:42.438Z,97498.41
2022-08-17T16:32:21.757Z,97494.47
2022-08-17T16:35:03.557Z,97506.38
2022-08-17T16:37:34.200Z,97501.50
2022-08-17T16:40:07.807Z,97494.19
2022-08-17T16:42:39.859Z,97498.63
2022-08-17T16:45:13.060Z,97496.91
2022-08-17T16:47:42.514Z,97495.44
2022-08-17T16:50:15.376Z,97494.69
2022-08-17T16:52:45.721Z,97494.03
2022-08-17T16:55:20.329Z,97486.13
2022-08-17T16:57:50.164Z,97487.72
2022-08-17T17:00:21.037Z,97484.56
2022-08-17T17:02:51.017Z,97487.28
2022-08-17T17:05:42.975Z,97487.59
2022-08-17T17:08:16.171Z,97489.66
2022-08-17T17:10:50.931Z,97488.72
2022-08-17T17:13:31.493Z,97487.59
2022-08-17T17:16:18.604Z,97501.72
2022-08-17T17:19:06.652Z,97500.00
2022-08-17T17:21:44.921Z,97498.72
2022-08-17T17:24:20.053Z,97497.31
2022-08-17T17:27:21.137Z,97492.56
2022-08-17T17:30:10.069Z,97494.19
2022-08-17T17:32:45.879Z,97490.03
2022-08-17T17:35:24.242Z,97482.47
2022-08-17T17:37:58.400Z,97485.59
2022-08-17T17:40:39.168Z,97481.50
2022-08-17T17:43:37.741Z,97486.09
2022-08-17T17:46:27.652Z,97482.94
2022-08-17T17:48:58.245Z,97480.56
2022-08-17T17:52:07.690Z,97488.75
2022-08-17T17:54:54.103Z,97485.91
2022-08-17T17:57:44.201Z,97483.84
2022-08-17T18:00:19.731Z,97471.50
2022-08-17T18:03:19.541Z,97472.59
2022-08-17T18:06:14.965Z,97471.03
2022-08-17T18:09:10.257Z,97477.66
2022-08-17T18:12:06.050Z,97480.81
2022-08-17T18:15:23.066Z,97492.56
2022-08-17T18:18:37.994Z,97502.66
2022-08-17T18:21:15.860Z,97504.81
2022-08-17T18:23:56.877Z,97503.97
2022-08-17T18:26:51.408Z,97505.88
2022-08-17T18:29:45.521Z,97507.25
2022-08-17T18:32:36.418Z,97508.50
2022-08-17T18:35:35.425Z,97513.81
2022-08-17T18:38:23.450Z,97519.47
2022-08-17T18:41:02.838Z,97521.91
2022-08-17T18:43:36.511Z,97532.31
2022-08-17T18:46:29.832Z,97531.94
2022-08-17T18:49:02.211Z,97529.19
2022-08-17T18:51:41.780Z,97542.59
2022-08-17T18:54:23.704Z,97548.69
2022-08-17T18:56:56.456Z,97548.81
2022-08-17T18:59:42.635Z,97542.75
2022-08-17T19:02:43.813Z,97544.22
2022-08-17T19:05:31.900Z,97560.47
2022-08-17T19:08:24.345Z,97569.75
2022-08-17T19:11:01.783Z,97579.19
2022-08-17T19:13:40.300Z,97578.72
2022-08-17T19:16:18.705Z,97585.78
2022-08-17T19:18:53.992Z,97586.66
2022-08-17T19:21:31.585Z,97598.31
2022-08-17T19:24:11.234Z,97590.66
2022-08-17T19:26:54.709Z,97603.09
2022-08-17T19:29:34.345Z,97602.38
2022-08-17T19:32:03.455Z,97601.38
2022-08-17T19:34:36.294Z,97617.06
2022-08-17T19:37:16.429Z,97612.38
2022-08-17T19:40:07.482Z,97604.94
2022-08-17T19:42:52.745Z,97608.78
2022-08-17T19:45:42.255Z,97611.09
2022-08-17T19:48:27.158Z,97610.09
2022-08-17T19:51:04.031Z,97602.44
2022-08-17T19:54:04.426Z,97602.78
2022-08-17T19:56:48.778Z,97615.22
2022-08-17T19:59:35.784Z,97620.06
2022-08-17T20:02:26.101Z,97623.91
2022-08-17T20:05:03.273Z,97628.25
2022-08-17T20:07:46.671Z,97617.31
2022-08-17T20:10:25.292Z,97615.50
2022-08-17T20:13:04.183Z,97618.50
2022-08-17T20:15:40.633Z,97624.72
2022-08-17T20:18:21.691Z,97626.09
2022-08-17T20:21:01.335Z,97621.63
2022-08-17T20:23:46.566Z,97633.78
2022-08-17T20:26:23.912Z,97638.16
2022-08-17T20:29:36.811Z,97636.91
2022-08-17T20:32:26.884Z,97631.41
2022-08-17T20:35:25.842Z,97625.13
2022-08-17T20:38:02.086Z,97631.34
2022-08-17T20:40:38.423Z,97626.56
2022-08-17T20:43:49.044Z,97630.44
2022-08-17T20:46:58.569Z,97632.41
2022-08-17T20:49:45.797Z,97641.81
2022-08-17T20:52:38.532Z,97642.34
2022-08-17T20:55:08.221Z,97652.91
2022-08-17T20:57:49.086Z,97649.78
2022-08-17T21:00:46.779Z,97657.63
2022-08-17T21:03:52.355Z,97660.03
2022-08-17T21:06:27.128Z,97661.31
2022-08-17T21:09:20.024Z,97660.03
2022-08-17T21:12:05.662Z,97656.91
2022-08-17T21:15:05.394Z,97652.06
2022-08-17T21:17:52.554Z,97659.56
2022-08-17T21:20:39.514Z,97667.88
2022-08-17T21:23:36.335Z,97675.94
2022-08-17T21:26:26.735Z,97677.81
2022-08-17T21:29:31.858Z,97677.09
2022-08-17T21:32:24.663Z,97675.31
2022-08-17T21:35:48.395Z,97668.09
2022-08-17T21:38:21.069Z,97676.09
2022-08-17T21:40:55.435Z,97666.53
2022-08-17T21:43:32.548Z,97677.78
2022-08-17T21:46:08.313Z,97671.13
2022-08-17T21:48:45.825Z,97671.41
2022-08-17T21:51:23.867Z,97671.41
2022-08-17T21:53:57.239Z,97677.31
2022-08-17T21:56:31.700Z,97687.50
2022-08-17T21:59:03.970Z,97687.75
2022-08-17T22:01:37.414Z,97685.38
2022-08-17T22:04:21.343Z,97681.16
2022-08-17T22:06:57.247Z,97687.63
2022-08-17T22:09:29.526Z,97675.91
2022-08-17T22:12:10.814Z,97670.31
2022-08-17T22:14:51.580Z,97672.25
2022-08-17T22:17:27.440Z,97672.81
2022-08-17T22:20:01.395Z,97676.31
2022-08-17T22:22:58.940Z,97675.53
2022-08-17T22:25:29.622Z,97676.59
2022-08-17T22:28:01.741Z,97683.56
2022-08-17T22:30:36.441Z,97693.97
2022-08-17T22:33:42.016Z,97694.78
2022-08-17T22:36:29.840Z,97701.81
2022-08-17T22:39:02.879Z,97701.81
2022-08-17T22:41:52.568Z,97697.50
2022-08-17T22:44:29.666Z,97689.50
2022-08-17T22:47:03.781Z,97688.19
2022-08-17T22:49:53.272Z,97691.94
2022-08-17T22:52:34.517Z,97692.22
2022-08-17T22:55:27.039Z,97698.38
2022-08-17T22:58:12.875Z,97701.06
2022-08-17T23:00:46.157Z,97703.97
2022-08-17T23:03:19.716Z,97701.31
2022-08-17T23:06:05.304Z,97710.69
2022-08-17T23:08:36.117Z,97706.16
2022-08-17T23:11:07.599Z,97703.50
2022-08-17T23:13:38.103Z,97703.50
2022-08-17T23:16:06.771Z,97704.28
2022-08-17T23:18:36.415Z,97708.59
2022-08-17T23:21:07.764Z,97705.16
2022-08-17T23:23:37.714Z,97711.00
2022-08-17T23:26:11.424Z,97719.78
2022-08-17T23:28:41.139Z,97716.31
2022-08-17T23:31:09.920Z,97718.50
2022-08-17T23:33:41.770Z,97722.47
2022-08-17T23:36:15.398Z,97724.34
2022-08-17T23:38:46.729Z,97723.28
2022-08-17T23:41:21.302Z,97727.81
2022-08-17T23:43:53.893Z,97726.50
2022-08-17T23:46:25.090Z,97714.22
2022-08-17T23:48:54.249Z,97716.91
2022-08-17T23:51:29.040Z,97716.94
2022-08-17T23:54:09.362Z,97716.41
2022-08-17T23:56:42.721Z,97713.72
2022-08-17T23:59:11.702Z,97731.66
